Time;durP1;ratioP1;P1;durP2;ratioP2;P2;SDS_P1;SDS_P2;PMS_P1;PMS_P2;Temp;Humidity;BMP_temperature;BMP_pressure;BME280_temperature;BME280_humidity;BME280_pressure;Samples;Min_cycle;Max_cycle;Signal;HPM_P1;HPM_P2
2023/06/03 00:00:41;;;;;;;;;;;;;;;19.79;42.88;96595.06;6294195;28;19932;-74
2023/06/03 00:03:46;;;;;;;;;;;;;;;19.77;42.83;96599.72;6294830;28;19925;-72
2023/06/03 00:06:52;;;;;;;;;;;;;;;19.81;42.37;96600.22;6294726;28;19924;-73
2023/06/03 00:09:59;;;;;;;;;;;;;;;20.28;43.83;96604.97;6294504;28;19924;-73
2023/06/03 00:13:04;;;;;;;;;;;;;;;20.32;43.63;96607.13;6294590;28;20011;-73
2023/06/03 00:16:08;;;;;;;;;;;;;;;20.25;43.55;96605.28;6294230;28;19928;-73
2023/06/03 00:19:09;;;;;;;;;;;;;;;20.37;43.83;96607.44;6294143;28;20405;-73
2023/06/03 00:22:14;;;;;;;;;;;;;;;20.66;43.75;96621.34;6294558;28;19921;-73
2023/06/03 00:25:18;;;;;;;;;;;;;;;20.57;43.74;96618.66;6294468;28;19925;-73
2023/06/03 00:28:19;;;;;;;;;;;;;;;20.59;43.91;96627.38;6293708;28;19927;-73
2023/06/03 00:31:20;;;;;;;;;;;;;;;20.85;44.07;96626.34;6294073;28;19935;-73
2023/06/03 00:34:23;;;;;;;;;;;;;;;20.68;43.69;96630.03;6293918;28;19924;-73
2023/06/03 00:37:26;;;;;;;;;;;;;;;20.63;43.75;96628.69;6293836;28;19924;-73
2023/06/03 00:40:30;;;;;;;;;;;;;;;20.71;44.14;96640.41;6294483;28;19925;-73
2023/06/03 00:43:32;;;;;;;;;;;;;;;20.66;44.28;96653.41;6294489;28;19931;-74
2023/06/03 00:46:34;;;;;;;;;;;;;;;20.66;44.30;96648.91;6295050;28;20428;-73
2023/06/03 00:49:35;;;;;;;;;;;;;;;20.49;44.14;96642.69;6298596;28;19925;-73
2023/06/03 00:52:40;;;;;;;;;;;;;;;20.31;44.63;96650.06;6298682;28;20325;-72
2023/06/03 00:55:44;;;;;;;;;;;;;;;20.45;44.62;96654.72;6298288;28;19935;-73
2023/06/03 00:58:46;;;;;;;;;;;;;;;20.25;44.53;96651.53;6297918;28;19928;-73
2023/06/03 01:01:50;;;;;;;;;;;;;;;20.18;44.40;96645.19;6298139;28;19924;-73
2023/06/03 01:04:55;;;;;;;;;;;;;;;20.21;44.49;96644.00;6298154;28;19924;-72
2023/06/03 01:07:56;;;;;;;;;;;;;;;20.19;44.87;96642.34;6298064;28;20405;-73
2023/06/03 01:11:07;;;;;;;;;;;;;;;20.33;44.55;96640.88;6297890;28;19931;-73
2023/06/03 01:14:31;;;;;;;;;;;;;;;20.33;44.38;96650.72;6298037;28;19924;-73
2023/06/03 01:17:39;;;;;;;;;;;;;;;20.20;44.58;96651.19;6298083;28;19924;-72
2023/06/03 01:20:43;;;;;;;;;;;;;;;20.17;44.50;96655.03;6297891;28;19925;-72
2023/06/03 01:23:48;;;;;;;;;;;;;;;20.26;44.60;96661.22;6297446;28;19924;-73
2023/06/03 01:26:52;;;;;;;;;;;;;;;20.23;44.63;96663.41;6297751;28;19924;-73
2023/06/03 01:29:56;;;;;;;;;;;;;;;20.34;44.58;96665.75;6297604;28;19924;-73
2023/06/03 01:33:01;;;;;;;;;;;;;;;20.40;44.62;96665.06;6297346;28;19924;-73
2023/06/03 01:36:05;;;;;;;;;;;;;;;20.37;44.39;96670.75;6296222;28;19924;-73
2023/06/03 01:39:11;;;;;;;;;;;;;;;20.50;44.39;96668.44;6297629;28;19975;-73
2023/06/03 01:42:15;;;;;;;;;;;;;;;20.74;44.59;96672.13;6296977;28;19925;-73
2023/06/03 01:45:16;;;;;;;;;;;;;;;20.84;44.28;96678.16;6297250;28;19924;-73
2023/06/03 01:48:20;;;;;;;;;;;;;;;20.90;44.34;96682.84;6297186;28;19924;-73
2023/06/03 01:51:24;;;;;;;;;;;;;;;20.87;44.30;96677.00;6296539;28;19924;-74
2023/06/03 01:54:25;;;;;;;;;;;;;;;20.96;44.13;96692.03;6296936;28;19930;-72
2023/06/03 01:57:29;;;;;;;;;;;;;;;21.00;44.45;96683.47;6296604;28;19928;-72
2023/06/03 02:00:30;;;;;;;;;;;;;;;20.89;44.37;96678.50;6296921;28;19931;-73
2023/06/03 02:03:31;;;;;;;;;;;;;;;21.07;44.57;96687.16;6295361;28;19924;-72
2023/06/03 02:06:32;;;;;;;;;;;;;;;21.10;44.39;96693.19;6296613;28;19924;-74
2023/06/03 02:09:35;;;;;;;;;;;;;;;20.83;44.67;96695.19;6296590;28;19924;-72
2023/06/03 02:12:39;;;;;;;;;;;;;;;20.85;44.78;96701.22;6296127;28;19946;-73
2023/06/03 02:15:42;;;;;;;;;;;;;;;20.89;45.23;96707.91;6295927;28;19966;-74
2023/06/03 02:18:44;;;;;;;;;;;;;;;20.93;45.10;96713.75;6296207;28;19931;-72
2023/06/03 02:21:47;;;;;;;;;;;;;;;21.43;44.76;96707.34;6296323;28;19931;-72
2023/06/03 02:24:57;;;;;;;;;;;;;;;21.59;44.55;96707.28;6296265;28;19924;-73
2023/06/03 02:27:59;;;;;;;;;;;;;;;21.75;44.32;96706.41;6295838;28;20305;-72
2023/06/03 02:31:00;;;;;;;;;;;;;;;21.93;44.07;96717.69;6295770;28;19931;-72
2023/06/03 02:34:03;;;;;;;;;;;;;;;22.13;44.21;96717.28;6295996;28;19925;-73
2023/06/03 02:37:05;;;;;;;;;;;;;;;22.16;44.21;96712.38;6294984;28;19931;-73
2023/06/03 02:40:09;;;;;;;;;;;;;;;22.30;43.72;96710.00;6295403;28;19939;-72
2023/06/03 02:43:13;;;;;;;;;;;;;;;22.65;43.37;96711.28;6295753;28;19924;-73
2023/06/03 02:46:16;;;;;;;;;;;;;;;22.92;43.01;96711.75;6295214;28;19974;-74
2023/06/03 02:49:18;;;;;;;;;;;;;;;23.35;42.35;96717.41;6295763;28;19932;-73
2023/06/03 02:52:22;;;;;;;;;;;;;;;23.78;41.58;96717.63;6295241;28;20412;-73
2023/06/03 02:55:23;;;;;;;;;;;;;;;24.17;40.92;96711.94;6295119;28;20414;-72
2023/06/03 02:58:26;;;;;;;;;;;;;;;24.38;40.36;96721.91;6294995;28;19929;-72
2023/06/03 03:01:30;;;;;;;;;;;;;;;24.45;40.27;96714.75;6295327;28;19924;-72
2023/06/03 03:04:36;;;;;;;;;;;;;;;24.42;40.46;96715.13;6295278;28;20082;-73
2023/06/03 03:07:39;;;;;;;;;;;;;;;24.69;39.80;96712.75;6295499;28;19925;-72
2023/06/03 03:10:42;;;;;;;;;;;;;;;24.77;39.87;96717.97;6293755;28;19931;-72
2023/06/03 03:13:46;;;;;;;;;;;;;;;24.95;39.48;96707.59;6295233;28;19928;-73
2023/06/03 03:16:52;;;;;;;;;;;;;;;25.03;39.44;96715.53;6295680;28;19967;-73
2023/06/03 03:19:55;;;;;;;;;;;;;;;25.26;39.35;96725.28;6295099;28;20379;-73
2023/06/03 03:22:58;;;;;;;;;;;;;;;25.06;39.50;96723.22;6295087;28;19924;-73
2023/06/03 03:26:00;;;;;;;;;;;;;;;24.95;39.69;96726.44;6295033;28;19924;-73
2023/06/03 03:29:01;;;;;;;;;;;;;;;25.10;39.18;96724.50;6294638;28;19943;-72
2023/06/03 03:32:06;;;;;;;;;;;;;;;25.19;38.87;96729.75;6295044;28;19986;-73
2023/06/03 03:35:11;;;;;;;;;;;;;;;25.11;39.06;96725.34;6294691;28;19925;-73
2023/06/03 03:38:16;;;;;;;;;;;;;;;25.09;37.85;96725.53;6294807;28;19925;-72
2023/06/03 03:41:17;;;;;;;;;;;;;;;25.02;37.64;96724.63;6294324;28;19950;-73
2023/06/03 03:44:22;;;;;;;;;;;;;;;24.81;38.07;96727.34;6294810;28;19924;-73
2023/06/03 03:47:23;;;;;;;;;;;;;;;24.97;37.44;96732.47;6294372;28;20393;-74
2023/06/03 03:50:39;;;;;;;;;;;;;;;25.08;36.78;96721.19;6294203;28;19931;-72
2023/06/03 03:53:44;;;;;;;;;;;;;;;25.06;36.97;96728.59;6276518;28;20273;-74
2023/06/03 03:56:45;;;;;;;;;;;;;;;25.13;36.95;96728.66;6294750;28;19924;-73
2023/06/03 03:59:47;;;;;;;;;;;;;;;25.18;36.19;96725.41;6294707;28;19924;-73
2023/06/03 04:02:53;;;;;;;;;;;;;;;25.10;36.81;96727.19;6294540;28;19924;-72
2023/06/03 04:05:54;;;;;;;;;;;;;;;24.94;37.22;96724.78;6294224;28;20416;-73
2023/06/03 04:08:58;;;;;;;;;;;;;;;25.18;36.61;96720.03;6294717;28;19925;-72
2023/06/03 04:12:02;;;;;;;;;;;;;;;25.24;36.25;96725.47;6293049;28;19931;-72
2023/06/03 04:15:07;;;;;;;;;;;;;;;25.39;36.42;96722.66;6294154;28;19925;-73
2023/06/03 04:18:12;;;;;;;;;;;;;;;25.22;37.04;96715.91;6294656;28;20266;-73
2023/06/03 04:21:16;;;;;;;;;;;;;;;25.13;37.16;96722.44;6296494;28;19924;-74
2023/06/03 04:24:21;;;;;;;;;;;;;;;25.25;37.22;96721.75;6299101;28;19925;-71
2023/06/03 04:27:25;;;;;;;;;;;;;;;25.37;37.05;96735.53;6299107;28;20295;-73
2023/06/03 04:30:31;;;;;;;;;;;;;;;25.52;36.51;96725.47;6299023;28;20555;-73
2023/06/03 04:33:34;;;;;;;;;;;;;;;25.66;36.56;96720.16;6298921;28;19928;-73
2023/06/03 04:36:35;;;;;;;;;;;;;;;25.63;36.82;96739.41;6297127;28;20309;-72
2023/06/03 04:39:42;;;;;;;;;;;;;;;25.85;36.19;96746.44;6297324;28;20019;-73
2023/06/03 04:42:43;;;;;;;;;;;;;;;27.28;33.82;96733.78;6298771;28;20313;-73
2023/06/03 04:45:45;;;;;;;;;;;;;;;29.08;30.86;96731.31;6297770;28;20021;-73
2023/06/03 04:48:48;;;;;;;;;;;;;;;31.04;28.13;96736.03;6298363;28;19924;-72
2023/06/03 04:51:51;;;;;;;;;;;;;;;32.77;25.43;96754.66;6298234;28;19925;-72
2023/06/03 04:54:53;;;;;;;;;;;;;;;34.14;24.26;96749.84;6298421;28;19925;-73
2023/06/03 04:58:00;;;;;;;;;;;;;;;35.97;21.73;96747.34;6298554;28;20475;-72
2023/06/03 05:01:04;;;;;;;;;;;;;;;37.32;19.95;96773.09;6297288;28;19925;-73
2023/06/03 05:04:11;;;;;;;;;;;;;;;38.09;19.62;96765.66;6297243;28;19924;-72
2023/06/03 05:07:14;;;;;;;;;;;;;;;39.19;18.58;96758.34;6296997;28;19928;-72
2023/06/03 05:10:19;;;;;;;;;;;;;;;40.33;17.19;96756.25;6296788;28;19930;-72
2023/06/03 05:13:22;;;;;;;;;;;;;;;41.49;15.77;96747.50;6296998;28;19931;-73
2023/06/03 05:16:25;;;;;;;;;;;;;;;41.67;15.58;96772.59;6298022;28;20317;-73
2023/06/03 05:19:28;;;;;;;;;;;;;;;41.73;15.68;96761.19;6297959;28;19925;-73
2023/06/03 05:22:32;;;;;;;;;;;;;;;42.34;15.04;96759.25;6297752;28;19924;-73
2023/06/03 05:25:33;;;;;;;;;;;;;;;42.38;14.74;96754.75;6297528;28;19924;-73
2023/06/03 05:28:38;;;;;;;;;;;;;;;42.55;14.56;96754.13;6297672;28;19924;-72
2023/06/03 05:31:42;;;;;;;;;;;;;;;43.58;13.29;96747.13;6296363;28;20062;-73
2023/06/03 05:34:48;;;;;;;;;;;;;;;43.51;13.74;96755.00;6296242;28;20307;-72
2023/06/03 05:37:54;;;;;;;;;;;;;;;43.67;13.58;96761.03;6297027;28;19931;-73
2023/06/03 05:41:02;;;;;;;;;;;;;;;43.99;13.94;96748.84;6297376;28;19924;-73
2023/06/03 05:44:06;;;;;;;;;;;;;;;45.53;12.40;96763.78;6296984;28;20377;-72
2023/06/03 05:47:12;;;;;;;;;;;;;;;45.51;12.18;96749.38;6297242;28;19924;-72
2023/06/03 05:50:18;;;;;;;;;;;;;;;45.02;11.96;96750.34;6297090;28;19924;-72
2023/06/03 05:53:23;;;;;;;;;;;;;;;45.07;12.23;96751.31;6296997;28;19924;-72
2023/06/03 05:56:27;;;;;;;;;;;;;;;45.53;11.40;96764.59;6294963;28;19932;-74
2023/06/03 05:59:29;;;;;;;;;;;;;;;44.90;11.59;96752.94;6296431;28;19940;-73
2023/06/03 06:02:30;;;;;;;;;;;;;;;44.94;11.59;96758.66;6294471;28;19925;-72
2023/06/03 06:05:33;;;;;;;;;;;;;;;44.67;11.37;96770.81;6296116;28;19946;-73
2023/06/03 06:08:37;;;;;;;;;;;;;;;43.63;12.05;96755.31;6296345;28;20316;-72
2023/06/03 06:11:44;;;;;;;;;;;;;;;43.53;12.18;96760.25;6296692;28;19925;-73
2023/06/03 06:14:46;;;;;;;;;;;;;;;44.72;11.77;96752.06;6296368;28;20308;-73
2023/06/03 06:17:49;;;;;;;;;;;;;;;44.68;11.97;96750.28;6296242;28;19924;-72
2023/06/03 06:20:52;;;;;;;;;;;;;;;44.98;10.87;96776.28;6295195;28;20010;-72
2023/06/03 06:24:00;;;;;;;;;;;;;;;44.31;11.59;96767.09;6296250;28;19925;-72
2023/06/03 06:27:01;;;;;;;;;;;;;;;44.57;11.20;96767.22;6295623;28;19925;-72
2023/06/03 06:30:05;;;;;;;;;;;;;;;44.77;10.83;96778.88;6296007;28;19974;-73
2023/06/03 06:33:09;;;;;;;;;;;;;;;44.75;10.91;96768.09;6295915;28;19977;-71
2023/06/03 06:36:15;;;;;;;;;;;;;;;44.56;10.75;96790.56;6295790;28;19924;-72
2023/06/03 06:39:40;;;;;;;;;;;;;;;44.48;10.52;96774.69;6295318;28;19925;-71
2023/06/03 06:42:43;;;;;;;;;;;;;;;44.06;11.02;96774.16;6295402;28;19938;-73
2023/06/03 06:45:47;;;;;;;;;;;;;;;44.17;11.27;96773.91;6295051;28;19924;-72
2023/06/03 06:48:53;;;;;;;;;;;;;;;44.25;11.15;96759.22;6295137;28;20344;-72
2023/06/03 06:51:57;;;;;;;;;;;;;;;44.55;11.08;96763.13;6293335;28;20009;-72
2023/06/03 06:55:01;;;;;;;;;;;;;;;45.50;10.36;96756.09;6294844;28;20062;-73
2023/06/03 06:58:03;;;;;;;;;;;;;;;46.01;10.07;96787.75;6294751;28;19925;-73
2023/06/03 07:01:07;;;;;;;;;;;;;;;46.16;9.80;96775.28;6295344;28;19924;-72
2023/06/03 07:04:11;;;;;;;;;;;;;;;46.30;9.92;96776.72;6295554;28;19924;-72
2023/06/03 07:07:12;;;;;;;;;;;;;;;45.66;10.12;96768.31;6294667;28;19924;-72
2023/06/03 07:10:21;;;;;;;;;;;;;;;45.33;10.81;96766.06;6295305;28;19934;-72
2023/06/03 07:13:23;;;;;;;;;;;;;;;45.34;10.48;96762.13;6294967;28;20078;-72
2023/06/03 07:16:26;;;;;;;;;;;;;;;45.81;10.14;96775.34;6294985;28;20401;-72
2023/06/03 07:19:32;;;;;;;;;;;;;;;45.32;10.50;96769.16;6295145;28;19924;-72
2023/06/03 07:22:36;;;;;;;;;;;;;;;45.85;9.96;96791.03;6294842;28;19932;-73
2023/06/03 07:25:47;;;;;;;;;;;;;;;45.47;10.21;96788.94;6294499;28;19924;-73
2023/06/03 07:28:48;;;;;;;;;;;;;;;45.67;10.22;96772.75;6294969;28;19974;-72
2023/06/03 07:31:51;;;;;;;;;;;;;;;46.02;9.83;96781.03;6295092;28;19925;-73
2023/06/03 07:34:52;;;;;;;;;;;;;;;46.89;9.14;96775.13;6294223;28;20007;-73
2023/06/03 07:37:56;;;;;;;;;;;;;;;46.70;9.53;96776.38;6294012;28;19928;-73
2023/06/03 07:40:57;;;;;;;;;;;;;;;48.07;8.48;96779.53;6294480;28;19920;-73
2023/06/03 07:44:04;;;;;;;;;;;;;;;47.57;8.35;96778.56;6294014;28;19924;-72
2023/06/03 07:47:14;;;;;;;;;;;;;;;47.64;8.73;96806.69;6294709;28;19928;-72
2023/06/03 07:50:26;;;;;;;;;;;;;;;47.10;9.18;96787.09;6294339;28;19924;-72
2023/06/03 07:53:35;;;;;;;;;;;;;;;46.41;9.35;96781.91;6294692;28;20364;-72
2023/06/03 07:56:43;;;;;;;;;;;;;;;45.17;10.25;96773.25;6297658;28;19931;-73
2023/06/03 07:59:53;;;;;;;;;;;;;;;45.41;10.17;96778.28;6299510;28;19924;-72
2023/06/03 08:02:59;;;;;;;;;;;;;;;44.34;10.71;96773.97;6299609;28;19924;-72
2023/06/03 08:06:06;;;;;;;;;;;;;;;44.26;11.11;96783.06;6299547;28;19970;-72
2023/06/03 08:09:27;;;;;;;;;;;;;;;44.02;11.01;96781.47;6298386;28;20017;-73
2023/06/03 08:12:33;;;;;;;;;;;;;;;44.07;11.15;96786.88;6299404;28;19925;-73
2023/06/03 08:15:37;;;;;;;;;;;;;;;45.34;10.58;96773.25;6299121;28;20344;-72
2023/06/03 08:18:45;;;;;;;;;;;;;;;46.06;10.27;96785.63;6298543;28;20390;-73
2023/06/03 08:21:46;;;;;;;;;;;;;;;46.27;9.88;96771.78;6298643;28;20282;-72
2023/06/03 08:24:50;;;;;;;;;;;;;;;45.55;9.94;96778.16;6298500;28;20395;-73
2023/06/03 08:27:53;;;;;;;;;;;;;;;44.68;10.41;96778.03;6298905;28;19928;-72
2023/06/03 08:30:55;;;;;;;;;;;;;;;43.60;11.33;96778.13;6297105;28;20093;-73
2023/06/03 08:33:59;;;;;;;;;;;;;;;43.27;10.96;96770.00;6298615;28;19924;-73
2023/06/03 08:37:03;;;;;;;;;;;;;;;42.96;11.74;96780.13;6297798;28;19931;-73
2023/06/03 08:40:08;;;;;;;;;;;;;;;42.95;11.55;96806.19;6298569;28;20015;-72
2023/06/03 08:43:15;;;;;;;;;;;;;;;42.45;12.08;96772.88;6298837;28;19940;-73
2023/06/03 08:46:23;;;;;;;;;;;;;;;42.47;12.02;96781.69;6298657;28;19975;-73
2023/06/03 08:49:36;;;;;;;;;;;;;;;42.49;12.04;96777.47;6298575;28;19931;-72
2023/06/03 08:52:38;;;;;;;;;;;;;;;42.55;12.59;96764.34;6297894;28;19925;-72
2023/06/03 08:55:45;;;;;;;;;;;;;;;42.64;12.43;96754.22;6298362;28;19925;-72
2023/06/03 08:58:53;;;;;;;;;;;;;;;43.17;12.14;96766.66;6298199;28;19925;-72
2023/06/03 09:01:55;;;;;;;;;;;;;;;43.10;12.17;96769.84;6297828;28;19924;-73
2023/06/03 09:05:01;;;;;;;;;;;;;;;43.25;12.33;96761.19;6298010;28;19924;-73
2023/06/03 09:08:02;;;;;;;;;;;;;;;43.52;12.12;96776.06;6296913;28;19925;-72
2023/06/03 09:11:04;;;;;;;;;;;;;;;43.56;12.42;96760.47;6297538;28;20312;-73
2023/06/03 09:14:14;;;;;;;;;;;;;;;42.92;13.07;96773.56;6298216;28;19968;-72
2023/06/03 09:17:18;;;;;;;;;;;;;;;42.31;13.11;96759.84;6297755;28;19970;-73
2023/06/03 09:20:19;;;;;;;;;;;;;;;42.43;13.00;96756.59;6297628;28;19932;-72
2023/06/03 09:23:24;;;;;;;;;;;;;;;42.13;13.40;96758.00;6298026;28;20394;-72
2023/06/03 09:26:25;;;;;;;;;;;;;;;41.43;13.77;96751.44;6297483;28;19924;-74
2023/06/03 09:29:26;;;;;;;;;;;;;;;41.81;13.65;96756.88;6298282;28;19924;-73
2023/06/03 09:32:30;;;;;;;;;;;;;;;41.79;13.37;96759.16;6298967;28;19925;-73
2023/06/03 09:35:31;;;;;;;;;;;;;;;42.30;12.94;96749.09;6298310;28;19925;-72
2023/06/03 09:38:51;;;;;;;;;;;;;;;42.41;12.80;96756.09;6297391;28;20070;-72
2023/06/03 09:41:56;;;;;;;;;;;;;;;42.25;13.09;96755.53;6297843;28;20312;-72
2023/06/03 09:45:01;;;;;;;;;;;;;;;41.98;12.93;96745.28;6297749;28;20413;-72
2023/06/03 09:48:06;;;;;;;;;;;;;;;41.97;12.79;96754.69;6295975;28;19928;-73
2023/06/03 09:51:07;;;;;;;;;;;;;;;41.22;13.13;96750.94;6297410;28;19936;-72
2023/06/03 09:54:12;;;;;;;;;;;;;;;40.73;13.23;96754.09;6297694;28;19924;-72
2023/06/03 09:57:16;;;;;;;;;;;;;;;39.94;13.97;96746.16;6297104;28;20436;-72
2023/06/03 10:00:23;;;;;;;;;;;;;;;39.78;14.25;96730.94;6297506;28;19924;-72
2023/06/03 10:03:25;;;;;;;;;;;;;;;39.60;13.96;96738.75;6296333;28;19924;-73
2023/06/03 10:06:28;;;;;;;;;;;;;;;39.55;13.93;96763.59;6278994;28;20003;-73
2023/06/03 10:09:29;;;;;;;;;;;;;;;39.38;14.00;96763.16;6297118;28;19931;-72
2023/06/03 10:12:33;;;;;;;;;;;;;;;38.94;14.69;96745.56;6296763;28;19924;-72
2023/06/03 10:15:39;;;;;;;;;;;;;;;38.51;15.47;96763.66;6297103;28;19924;-72
2023/06/03 10:18:41;;;;;;;;;;;;;;;38.49;15.04;96763.09;6295619;28;19925;-73
2023/06/03 10:21:43;;;;;;;;;;;;;;;38.34;15.05;96742.78;6296602;28;19978;-72
2023/06/03 10:24:49;;;;;;;;;;;;;;;38.13;15.21;96744.78;6297007;28;20389;-72
2023/06/03 10:27:58;;;;;;;;;;;;;;;38.41;15.36;96757.06;6296267;28;20200;-73
2023/06/03 10:31:03;;;;;;;;;;;;;;;38.32;15.58;96741.41;6296484;28;20421;-72
2023/06/03 10:34:09;;;;;;;;;;;;;;;38.27;15.87;96745.00;6296339;28;20305;-73
2023/06/03 10:37:13;;;;;;;;;;;;;;;38.66;15.65;96744.31;6296004;28;19924;-73
2023/06/03 10:40:15;;;;;;;;;;;;;;;39.19;15.05;96755.56;6295815;28;19924;-71
2023/06/03 10:43:18;;;;;;;;;;;;;;;39.04;15.14;96758.44;6295556;28;19924;-73
2023/06/03 10:46:21;;;;;;;;;;;;;;;38.99;14.76;96739.22;6294991;28;20045;-73
2023/06/03 10:49:24;;;;;;;;;;;;;;;38.56;15.49;96753.44;6295482;28;19924;-73
2023/06/03 10:52:31;;;;;;;;;;;;;;;37.24;16.69;96733.28;6295140;28;19924;-73
2023/06/03 10:55:42;;;;;;;;;;;;;;;37.04;16.04;96716.84;6295196;28;19925;-72
2023/06/03 10:58:47;;;;;;;;;;;;;;;37.20;16.60;96743.19;6295520;28;19924;-72
2023/06/03 11:02:01;;;;;;;;;;;;;;;37.18;16.82;96739.06;6295803;28;19924;-73
2023/06/03 11:05:21;;;;;;;;;;;;;;;37.28;16.37;96739.06;6295685;28;19924;-73
2023/06/03 11:08:40;;;;;;;;;;;;;;;37.41;16.72;96733.03;6295276;28;20407;-73
2023/06/03 11:11:44;;;;;;;;;;;;;;;37.55;16.54;96727.03;6295557;28;20412;-73
2023/06/03 11:14:51;;;;;;;;;;;;;;;37.49;16.50;96761.88;6295546;28;19928;-72
2023/06/03 11:18:13;;;;;;;;;;;;;;;37.36;16.51;96723.97;6295346;28;20309;-74
2023/06/03 11:21:45;;;;;;;;;;;;;;;37.30;16.58;96717.66;6293795;28;19924;-74
2023/06/03 11:24:50;;;;;;;;;;;;;;;37.24;16.73;96716.84;6276647;28;19954;-73
2023/06/03 11:28:13;;;;;;;;;;;;;;;36.97;17.69;96719.81;6295407;28;19932;-73
2023/06/03 11:31:17;;;;;;;;;;;;;;;36.78;18.04;96727.72;6294398;28;19924;-74
2023/06/03 11:34:25;;;;;;;;;;;;;;;36.77;17.87;96727.97;6294164;28;19924;-73
2023/06/03 11:37:41;;;;;;;;;;;;;;;36.73;17.91;96726.88;6295056;28;20400;-73
2023/06/03 11:40:44;;;;;;;;;;;;;;;37.01;17.52;96720.13;6294814;28;20394;-73
2023/06/03 11:44:15;;;;;;;;;;;;;;;37.01;17.08;96729.16;6294841;28;19925;-74
2023/06/03 11:47:17;;;;;;;;;;;;;;;36.53;17.50;96744.91;6294452;28;20003;-73
2023/06/03 11:50:18;;;;;;;;;;;;;;;36.26;18.08;96716.81;6293186;28;19960;-72
2023/06/03 11:53:36;;;;;;;;;;;;;;;36.03;18.30;96735.31;6293522;28;20015;-73
2023/06/03 11:56:50;;;;;;;;;;;;;;;35.87;18.39;96714.41;6294915;28;19924;-73
2023/06/03 11:59:55;;;;;;;;;;;;;;;35.80;18.57;96716.56;6294044;28;19936;-73
2023/06/03 12:02:56;;;;;;;;;;;;;;;35.58;18.77;96722.97;6294411;28;19925;-73
2023/06/03 12:06:02;;;;;;;;;;;;;;;35.67;18.42;96710.47;6294650;28;19925;-73
2023/06/03 12:09:03;;;;;;;;;;;;;;;35.60;18.54;96698.94;6294247;28;20291;-73
2023/06/03 12:12:06;;;;;;;;;;;;;;;35.41;18.60;96716.81;6294110;28;19924;-73
2023/06/03 12:15:09;;;;;;;;;;;;;;;35.27;18.88;96714.53;6294407;28;20305;-73
2023/06/03 12:18:11;;;;;;;;;;;;;;;35.24;19.03;96706.81;6293703;28;20309;-73
2023/06/03 12:21:22;;;;;;;;;;;;;;;35.52;18.96;96732.22;6294216;28;20026;-72
2023/06/03 12:24:27;;;;;;;;;;;;;;;35.44;18.41;96724.50;6293741;28;19924;-73
2023/06/03 12:27:34;;;;;;;;;;;;;;;35.20;18.52;96727.59;6294065;28;19925;-74
2023/06/03 12:30:36;;;;;;;;;;;;;;;35.27;18.03;96717.28;6293993;28;19924;-73
2023/06/03 12:33:40;;;;;;;;;;;;;;;35.20;18.23;96716.66;6293983;28;19932;-72
2023/06/03 12:36:49;;;;;;;;;;;;;;;35.22;17.86;96735.56;6293870;28;20294;-72
2023/06/03 12:39:50;;;;;;;;;;;;;;;34.63;18.52;96718.00;6293428;28;20347;-73
2023/06/03 12:42:56;;;;;;;;;;;;;;;34.01;19.01;96703.81;6297275;28;19931;-73
2023/06/03 12:46:12;;;;;;;;;;;;;;;33.80;19.26;96713.59;6298235;28;20290;-72
2023/06/03 12:49:16;;;;;;;;;;;;;;;33.38;20.08;96712.16;6298059;28;19978;-73
2023/06/03 12:52:20;;;;;;;;;;;;;;;33.22;20.39;96721.97;6298736;28;20015;-72
2023/06/03 12:55:24;;;;;;;;;;;;;;;33.01;21.01;96717.28;6298593;28;19924;-74
2023/06/03 12:58:25;;;;;;;;;;;;;;;32.89;21.02;96717.28;6298434;28;19924;-71
2023/06/03 13:01:27;;;;;;;;;;;;;;;32.74;21.17;96717.84;6297839;28;20348;-72
2023/06/03 13:04:32;;;;;;;;;;;;;;;32.55;20.78;96717.19;6297233;28;19925;-72
2023/06/03 13:07:34;;;;;;;;;;;;;;;32.33;21.92;96717.03;6297851;28;20390;-73
2023/06/03 13:10:38;;;;;;;;;;;;;;;32.02;22.32;96709.28;6298214;28;19975;-74
2023/06/03 13:13:42;;;;;;;;;;;;;;;32.23;22.70;96716.00;6297862;28;20317;-74
2023/06/03 13:16:48;;;;;;;;;;;;;;;32.37;22.40;96710.03;6297891;28;20014;-74
2023/06/03 13:19:53;;;;;;;;;;;;;;;32.56;21.99;96707.16;6298217;28;19924;-73
2023/06/03 13:22:57;;;;;;;;;;;;;;;32.54;22.16;96712.81;6297756;28;19925;-73
2023/06/03 13:25:58;;;;;;;;;;;;;;;32.71;22.07;96717.50;6295567;28;20404;-73
2023/06/03 13:29:04;;;;;;;;;;;;;;;32.67;22.05;96728.06;6297765;28;19924;-74
2023/06/03 13:32:09;;;;;;;;;;;;;;;32.53;22.14;96716.63;6297402;28;19924;-73
2023/06/03 13:35:15;;;;;;;;;;;;;;;32.37;22.34;96706.47;6297293;28;19924;-74
2023/06/03 13:38:21;;;;;;;;;;;;;;;31.92;22.39;96699.84;6297604;28;19947;-72
2023/06/03 13:41:27;;;;;;;;;;;;;;;32.06;22.71;96719.44;6296216;28;19928;-73
2023/06/03 13:44:31;;;;;;;;;;;;;;;32.01;23.16;96703.00;6297010;28;19924;-74
2023/06/03 13:47:35;;;;;;;;;;;;;;;31.82;23.12;96704.19;6297107;28;20397;-72
2023/06/03 13:50:41;;;;;;;;;;;;;;;31.74;23.60;96703.50;6297087;28;19977;-73
2023/06/03 13:53:42;;;;;;;;;;;;;;;31.73;23.20;96695.56;6296108;28;19947;-73
2023/06/03 13:56:46;;;;;;;;;;;;;;;31.63;23.68;96706.25;6297066;28;19972;-74
2023/06/03 13:59:52;;;;;;;;;;;;;;;31.53;23.38;96702.19;6296894;28;19924;-72
2023/06/03 14:02:53;;;;;;;;;;;;;;;31.39;23.97;96717.09;6296831;28;19931;-73
2023/06/03 14:05:57;;;;;;;;;;;;;;;31.27;24.33;96714.34;6296778;28;19924;-73
2023/06/03 14:08:58;;;;;;;;;;;;;;;31.16;24.25;96723.31;6296148;28;20087;-73
2023/06/03 14:12:03;;;;;;;;;;;;;;;31.08;24.44;96716.34;6296735;28;19967;-73
2023/06/03 14:15:05;;;;;;;;;;;;;;;30.91;24.61;96714.50;6296210;28;20435;-74
2023/06/03 14:18:10;;;;;;;;;;;;;;;30.80;24.80;96714.25;6296299;28;19942;-74
2023/06/03 14:21:14;;;;;;;;;;;;;;;30.81;24.60;96715.91;6296490;28;19932;-74
2023/06/03 14:24:15;;;;;;;;;;;;;;;30.71;24.99;96721.03;6294578;28;19924;-73
2023/06/03 14:27:16;;;;;;;;;;;;;;;30.82;24.39;96722.16;6295936;28;20029;-73
2023/06/03 14:30:17;;;;;;;;;;;;;;;30.73;24.47;96721.63;6295904;28;19924;-74
2023/06/03 14:33:23;;;;;;;;;;;;;;;30.76;24.30;96712.19;6296035;28;19931;-73
2023/06/03 14:36:27;;;;;;;;;;;;;;;30.67;24.58;96724.44;6295733;28;20090;-74
2023/06/03 14:39:30;;;;;;;;;;;;;;;30.67;24.58;96713.59;6296332;28;19925;-73
2023/06/03 14:42:34;;;;;;;;;;;;;;;30.51;24.49;96715.06;6294407;28;20466;-72
2023/06/03 14:45:40;;;;;;;;;;;;;;;30.54;24.68;96717.31;6295884;28;19924;-73
2023/06/03 14:48:43;;;;;;;;;;;;;;;30.49;25.15;96717.16;6295905;28;19924;-74
2023/06/03 14:51:46;;;;;;;;;;;;;;;30.41;25.22;96704.75;6295741;28;19924;-76
2023/06/03 14:54:53;;;;;;;;;;;;;;;30.40;25.59;96703.06;6295795;28;19924;-74
2023/06/03 14:57:56;;;;;;;;;;;;;;;30.29;25.40;96717.41;6295410;28;19924;-73
2023/06/03 15:01:00;;;;;;;;;;;;;;;30.14;25.61;96720.50;6295101;28;19924;-73
2023/06/03 15:04:04;;;;;;;;;;;;;;;29.92;25.72;96710.13;6295392;28;19925;-72
2023/06/03 15:07:05;;;;;;;;;;;;;;;29.95;26.26;96706.97;6294239;28;20033;-74
2023/06/03 15:10:07;;;;;;;;;;;;;;;29.93;26.19;96709.06;6294871;28;19924;-73
2023/06/03 15:13:11;;;;;;;;;;;;;;;29.85;26.40;96714.78;6295429;28;19924;-74
2023/06/03 15:16:14;;;;;;;;;;;;;;;29.94;26.48;96713.41;6295313;28;19924;-74
2023/06/03 15:19:18;;;;;;;;;;;;;;;29.89;26.58;96718.69;6295395;28;19928;-74
2023/06/03 15:22:19;;;;;;;;;;;;;;;29.66;27.09;96718.53;6294697;28;19928;-74
2023/06/03 15:25:26;;;;;;;;;;;;;;;29.47;27.28;96720.34;6295277;28;19930;-73
2023/06/03 15:28:29;;;;;;;;;;;;;;;29.46;27.63;96708.66;6294949;28;20397;-72
2023/06/03 15:31:30;;;;;;;;;;;;;;;29.20;28.02;96719.75;6294654;28;19925;-74
2023/06/03 15:34:31;;;;;;;;;;;;;;;29.00;28.19;96720.72;6295125;28;19939;-73
2023/06/03 15:37:32;;;;;;;;;;;;;;;28.99;28.11;96719.06;6294295;28;19924;-73
2023/06/03 15:40:33;;;;;;;;;;;;;;;28.97;28.69;96720.31;6294769;28;20025;-73
2023/06/03 15:43:34;;;;;;;;;;;;;;;28.90;29.01;96720.34;6294583;28;20301;-72
2023/06/03 15:46:38;;;;;;;;;;;;;;;28.92;29.17;96720.97;6294763;28;19924;-74
2023/06/03 15:49:39;;;;;;;;;;;;;;;28.83;29.51;96711.47;6294211;28;19924;-74
2023/06/03 15:52:40;;;;;;;;;;;;;;;28.52;29.80;96715.81;6294609;28;19925;-74
2023/06/03 15:55:41;;;;;;;;;;;;;;;28.43;30.14;96717.13;6292844;28;19962;-73
2023/06/03 15:58:47;;;;;;;;;;;;;;;28.28;30.24;96722.78;6294586;28;19936;-73
2023/06/03 16:01:50;;;;;;;;;;;;;;;28.24;30.52;96721.53;6294092;28;19925;-73